Time;durP1;ratioP1;P1;durP2;ratioP2;P2;SDS_P1;SDS_P2;PMS_P1;PMS_P2;Temp;Humidity;BMP_temperature;BMP_pressure;BME280_temperature;BME280_humidity;BME280_pressure;Samples;Min_cycle;Max_cycle;Signal;HPM_P1;HPM_P2
2022/06/06 00:00:15;;;;;;;15.80;14.13;;;18.90;99.90;;;;;;6111547;23;20525;-83
2022/06/06 00:02:44;;;;;;;18.37;15.20;;;18.80;99.90;;;;;;6109579;23;20434;-83
2022/06/06 00:05:16;;;;;;;18.10;14.20;;;18.90;99.90;;;;;;6136718;23;20407;-84
2022/06/06 00:07:45;;;;;;;18.00;14.80;;;18.80;99.90;;;;;;6139787;23;20470;-82
2022/06/06 00:10:22;;;;;;;17.33;13.70;;;18.80;99.90;;;;;;6152862;23;20435;-82
2022/06/06 00:12:54;;;;;;;17.60;13.10;;;18.80;99.90;;;;;;6153286;23;20417;-81
2022/06/06 00:15:23;;;;;;;15.20;12.83;;;18.80;99.90;;;;;;6153516;23;20400;-86
2022/06/06 00:17:56;;;;;;;18.40;14.70;;;18.80;99.90;;;;;;6153024;23;20463;-85
2022/06/06 00:20:26;;;;;;;21.90;16.37;;;18.90;99.90;;;;;;6152220;23;20507;-87
2022/06/06 00:23:01;;;;;;;18.37;14.60;;;18.90;99.90;;;;;;6151110;23;20463;-85
2022/06/06 00:25:31;;;;;;;20.77;14.97;;;18.90;99.90;;;;;;6151720;23;20406;-86
2022/06/06 00:28:00;;;;;;;21.93;16.50;;;18.90;99.90;;;;;;6114012;23;20416;-82
2022/06/06 00:30:34;;;;;;;20.27;15.57;;;18.90;99.90;;;;;;6141677;23;20492;-80
2022/06/06 00:35:49;;;;;;;21.07;17.07;;;18.90;99.90;;;;;;6143955;23;20447;-80
2022/06/06 00:38:19;;;;;;;19.50;16.27;;;18.90;99.90;;;;;;6113122;23;20487;-83
2022/06/06 00:40:49;;;;;;;20.93;16.97;;;18.90;99.90;;;;;;6107015;23;20434;-81
2022/06/06 00:43:18;;;;;;;19.53;15.20;;;18.90;99.90;;;;;;6107148;23;21001;-82
2022/06/06 00:45:54;;;;;;;20.40;15.70;;;18.90;99.90;;;;;;6106951;23;20404;-81
2022/06/06 00:48:32;;;;;;;21.00;15.40;;;19.10;99.90;;;;;;6107226;23;21037;-82
2022/06/06 00:51:13;;;;;;;18.23;14.20;;;19.10;99.90;;;;;;6132039;23;20380;-82
2022/06/06 00:53:48;;;;;;;22.87;15.47;;;19.10;99.90;;;;;;6132816;23;20392;-83
2022/06/06 00:56:21;;;;;;;19.93;15.07;;;19.10;99.90;;;;;;6141581;23;20419;-84
2022/06/06 00:58:55;;;;;;;20.50;15.50;;;19.10;99.90;;;;;;6106945;23;20482;-83
2022/06/06 01:01:23;;;;;;;15.90;14.20;;;19.10;99.90;;;;;;6134020;23;20396;-84
2022/06/06 01:03:50;;;;;;;17.13;15.20;;;19.00;99.90;;;;;;6110107;23;20444;-83
2022/06/06 01:06:18;;;;;;;18.33;13.13;;;18.90;99.90;;;;;;6132993;23;20899;-83
2022/06/06 01:08:47;;;;;;;18.93;14.20;;;18.90;99.90;;;;;;6106776;23;20384;-81
2022/06/06 01:11:14;;;;;;;19.73;13.33;;;18.90;99.90;;;;;;6107004;23;20411;-84
2022/06/06 01:13:43;;;;;;;15.40;12.57;;;18.90;99.90;;;;;;6133186;23;20388;-82
2022/06/06 01:16:20;;;;;;;14.93;12.47;;;18.90;99.90;;;;;;6131670;23;20414;-83
2022/06/06 01:18:58;;;;;;;18.60;14.10;;;18.90;99.90;;;;;;6108713;23;20392;-83
2022/06/06 01:21:46;;;;;;;16.23;14.00;;;18.80;99.90;;;;;;6133025;23;20447;-83
2022/06/06 01:24:22;;;;;;;16.20;12.27;;;18.80;99.90;;;;;;6132096;23;20396;-83
2022/06/06 01:27:08;;;;;;;14.13;11.77;;;18.70;99.90;;;;;;6107086;23;20411;-83
2022/06/06 01:29:42;;;;;;;14.43;12.40;;;18.70;99.90;;;;;;6105750;23;20462;-82
2022/06/06 01:32:15;;;;;;;17.13;12.00;;;18.70;99.90;;;;;;6131309;23;20423;-83
2022/06/06 01:34:44;;;;;;;15.43;13.50;;;18.80;99.90;;;;;;6132858;23;20431;-83
2022/06/06 01:37:31;;;;;;;19.83;13.87;;;18.80;99.90;;;;;;6131641;23;20416;-83
2022/06/06 01:40:01;;;;;;;18.17;13.47;;;18.70;99.90;;;;;;6131832;23;20495;-83
2022/06/06 01:42:31;;;;;;;15.20;13.20;;;18.90;99.90;;;;;;6106382;23;20446;-83
2022/06/06 01:45:04;;;;;;;19.13;14.23;;;18.80;99.90;;;;;;6104872;23;20406;-83
2022/06/06 01:47:39;;;;;;;17.53;13.53;;;18.90;99.90;;;;;;6131407;23;20487;-82
2022/06/06 01:50:08;;;;;;;15.10;12.30;;;18.70;99.90;;;;;;6105879;23;20461;-83
2022/06/06 01:52:50;;;;;;;16.67;12.50;;;18.60;99.90;;;;;;6130903;23;20404;-83
2022/06/06 01:55:17;;;;;;;14.53;11.17;;;18.70;99.90;;;;;;6132119;23;20387;-83
2022/06/06 01:57:45;;;;;;;12.90;11.37;;;18.70;99.90;;;;;;6114850;23;20408;-83
2022/06/06 02:00:13;;;;;;;12.70;11.33;;;18.60;99.90;;;;;;6132738;23;20438;-82
2022/06/06 02:02:43;;;;;;;14.47;10.97;;;18.60;99.90;;;;;;6131662;23;20447;-84
2022/06/06 02:05:12;;;;;;;14.20;11.00;;;18.50;99.90;;;;;;6111855;23;20835;-84
2022/06/06 02:07:41;;;;;;;13.43;11.73;;;18.50;99.90;;;;;;6150139;23;20403;-86
2022/06/06 02:10:10;;;;;;;11.50;9.97;;;18.50;99.90;;;;;;6123423;23;20459;-85
2022/06/06 02:12:38;;;;;;;11.70;10.20;;;18.70;99.90;;;;;;6148426;23;20400;-83
2022/06/06 02:15:07;;;;;;;12.63;10.33;;;18.80;99.90;;;;;;6120762;23;20515;-80
2022/06/06 02:17:35;;;;;;;13.90;9.63;;;18.70;99.90;;;;;;6141413;23;20412;-83
2022/06/06 02:20:10;;;;;;;9.17;7.77;;;18.60;99.90;;;;;;6111349;23;20431;-81
2022/06/06 02:22:41;;;;;;;8.87;7.87;;;18.60;99.90;;;;;;6112383;23;20439;-83
2022/06/06 02:25:10;;;;;;;8.83;7.93;;;18.60;99.90;;;;;;6139034;23;20415;-82
2022/06/06 02:27:38;;;;;;;8.73;7.30;;;18.50;99.90;;;;;;6134155;23;20471;-85
2022/06/06 02:30:11;;;;;;;10.37;7.67;;;18.40;99.90;;;;;;6136545;23;20428;-84
2022/06/06 02:32:39;;;;;;;8.33;7.40;;;18.50;99.90;;;;;;6115318;23;20416;-85
2022/06/06 02:35:11;;;;;;;8.43;7.43;;;18.50;99.90;;;;;;6141204;23;20411;-84
2022/06/06 02:37:38;;;;;;;11.03;8.37;;;18.30;99.90;;;;;;6133183;23;20490;-85
2022/06/06 02:40:07;;;;;;;8.60;7.70;;;18.50;99.90;;;;;;6139776;23;20439;-88
2022/06/06 02:42:34;;;;;;;7.80;6.90;;;18.40;99.90;;;;;;6132221;23;20454;-84
2022/06/06 02:45:02;;;;;;;7.23;6.53;;;18.70;99.90;;;;;;6108690;23;20432;-83
2022/06/06 02:47:29;;;;;;;7.80;7.00;;;18.60;99.90;;;;;;6134550;23;20412;-83
2022/06/06 02:50:03;;;;;;;6.93;6.27;;;18.60;99.90;;;;;;6108598;23;20432;-84
2022/06/06 02:52:37;;;;;;;9.30;6.90;;;18.60;99.90;;;;;;6108453;23;20422;-86
2022/06/06 02:55:06;;;;;;;7.67;6.87;;;18.40;99.90;;;;;;6133076;23;20416;-86
2022/06/06 02:58:06;;;;;;;6.90;5.93;;;18.60;99.90;;;;;;6133319;23;20424;-85
2022/06/06 03:00:36;;;;;;;6.10;5.47;;;18.40;99.90;;;;;;6114768;23;20443;-86
2022/06/06 03:03:12;;;;;;;7.30;6.10;;;18.20;99.90;;;;;;6134243;23;20932;-83
2022/06/06 03:06:18;;;;;;;6.23;5.60;;;18.10;99.90;;;;;;6107983;23;20415;-83
2022/06/06 03:09:00;;;;;;;6.93;5.63;;;18.10;99.90;;;;;;6132025;23;20438;-84
2022/06/06 03:11:47;;;;;;;7.00;5.80;;;18.10;99.90;;;;;;6134054;23;20395;-83
2022/06/06 03:14:20;;;;;;;6.87;5.33;;;18.10;99.90;;;;;;6132986;23;20884;-84
2022/06/06 03:20:47;;;;;;;6.83;6.13;;;18.10;99.90;;;;;;6072208;23;20447;-84
2022/06/06 03:23:26;;;;;;;6.13;5.63;;;18.10;99.90;;;;;;6107517;23;20432;-83
2022/06/06 03:26:05;;;;;;;5.57;4.73;;;18.00;99.90;;;;;;6107507;23;20388;-83
2022/06/06 03:29:10;;;;;;;5.67;5.10;;;18.00;99.90;;;;;;6131783;23;20417;-84
2022/06/06 03:31:58;;;;;;;4.90;4.50;;;18.00;99.90;;;;;;6132544;23;20415;-85
2022/06/06 03:34:38;;;;;;;6.03;5.07;;;18.00;99.90;;;;;;6132641;23;20404;-84
2022/06/06 03:37:17;;;;;;;4.90;4.27;;;18.00;99.90;;;;;;6130065;23;20888;-86
2022/06/06 03:39:52;;;;;;;4.83;4.43;;;18.10;99.90;;;;;;6129723;23;20443;-83
2022/06/06 03:42:46;;;;;;;7.17;4.63;;;18.10;99.90;;;;;;6132339;23;20503;-85
2022/06/06 03:45:40;;;;;;;6.77;5.00;;;18.10;99.90;;;;;;6114400;23;20414;-84
2022/06/06 03:48:16;;;;;;;5.37;4.60;;;18.10;99.90;;;;;;6132400;23;20400;-84
2022/06/06 03:51:27;;;;;;;5.10;4.60;;;18.10;99.90;;;;;;6132077;23;20435;-84
2022/06/06 03:53:57;;;;;;;5.63;5.03;;;18.10;99.90;;;;;;6105649;23;20407;-85
2022/06/06 03:56:37;;;;;;;7.90;5.57;;;18.00;99.90;;;;;;6132101;23;20931;-84
2022/06/06 03:59:06;;;;;;;6.50;5.70;;;17.90;99.90;;;;;;6130017;23;20435;-86
2022/06/06 04:01:36;;;;;;;5.97;5.10;;;17.90;99.90;;;;;;6107020;23;20415;-84
2022/06/06 04:04:04;;;;;;;5.30;4.80;;;17.90;99.90;;;;;;6106135;23;20555;-85
2022/06/06 04:06:34;;;;;;;5.00;4.50;;;17.90;99.90;;;;;;6107078;23;20404;-86
2022/06/06 04:09:02;;;;;;;5.07;4.63;;;17.90;99.90;;;;;;6133136;23;20447;-83
2022/06/06 04:11:28;;;;;;;7.77;4.77;;;17.90;99.90;;;;;;6135879;23;20939;-85
2022/06/06 04:14:21;;;;;;;6.67;5.20;;;17.90;99.90;;;;;;6133213;23;20407;-83
2022/06/06 04:17:22;;;;;;;6.03;4.93;;;17.90;99.90;;;;;;6106246;23;20399;-86
2022/06/06 04:20:10;;;;;;;5.10;4.60;;;17.80;99.90;;;;;;6132403;23;20454;-86
2022/06/06 04:23:03;;;;;;;5.80;5.20;;;17.90;99.90;;;;;;6130967;23;20431;-80
2022/06/06 04:25:45;;;;;;;6.27;4.90;;;18.00;99.90;;;;;;6135609;23;20395;-83
2022/06/06 04:28:23;;;;;;;5.70;5.07;;;18.00;99.90;;;;;;6132204;23;20384;-83
2022/06/06 04:30:55;;;;;;;5.77;5.27;;;18.00;99.90;;;;;;6132552;23;20494;-82
2022/06/06 04:33:27;;;;;;;4.70;4.13;;;18.00;99.90;;;;;;6133395;23;20412;-83
2022/06/06 04:36:19;;;;;;;4.63;4.23;;;18.10;99.90;;;;;;6132905;23;20397;-85
2022/06/06 04:39:08;;;;;;;4.93;4.43;;;18.10;99.90;;;;;;6132319;23;20402;-83
2022/06/06 04:41:47;;;;;;;5.10;4.60;;;18.10;99.90;;;;;;6106383;23;20424;-84
2022/06/06 04:44:20;;;;;;;4.50;4.10;;;18.20;99.90;;;;;;6131415;23;20428;-85
2022/06/06 04:47:13;;;;;;;4.67;4.27;;;18.20;99.90;;;;;;6133988;23;20408;-84
2022/06/06 04:49:41;;;;;;;4.77;4.27;;;18.20;99.50;;;;;;6115323;23;20539;-84
2022/06/06 04:52:09;;;;;;;4.80;3.90;;;18.20;99.40;;;;;;6133997;23;20431;-83
2022/06/06 04:54:40;;;;;;;4.73;4.33;;;18.20;99.20;;;;;;6108397;23;20425;-84
2022/06/06 04:57:09;;;;;;;6.30;4.93;;;18.10;99.10;;;;;;6107398;23;20420;-84
2022/06/06 04:59:38;;;;;;;5.03;4.63;;;18.10;99.20;;;;;;6107930;23;20440;-85
2022/06/06 05:02:05;;;;;;;4.97;4.57;;;18.10;99.50;;;;;;6109314;23;20412;-82
2022/06/06 05:04:46;;;;;;;5.00;4.50;;;18.10;99.40;;;;;;6132324;23;20439;-83
2022/06/06 05:07:34;;;;;;;6.63;4.20;;;18.30;99.30;;;;;;6134263;23;20415;-85
2022/06/06 05:10:15;;;;;;;4.37;3.97;;;18.30;99.50;;;;;;6107839;23;20432;-84
2022/06/06 05:13:19;;;;;;;6.60;5.43;;;18.20;99.20;;;;;;6134262;23;20402;-81
2022/06/06 05:16:27;;;;;;;5.07;4.60;;;18.20;99.50;;;;;;6134302;23;20415;-83
2022/06/06 05:19:23;;;;;;;4.33;3.97;;;18.20;99.70;;;;;;6106236;23;20790;-84
2022/06/06 05:22:04;;;;;;;5.63;4.27;;;18.40;99.40;;;;;;6128299;23;20416;-85
2022/06/06 05:25:05;;;;;;;5.93;4.40;;;18.30;99.20;;;;;;6130911;23;20444;-84
2022/06/06 05:27:48;;;;;;;4.57;4.17;;;18.30;99.50;;;;;;6131386;23;20720;-83
2022/06/06 05:30:48;;;;;;;5.00;4.30;;;18.20;99.70;;;;;;6106626;23;20428;-84
2022/06/06 05:33:20;;;;;;;3.57;3.27;;;18.30;99.80;;;;;;6105725;23;20722;-82
2022/06/06 05:36:02;;;;;;;4.40;3.73;;;18.30;99.70;;;;;;6134825;23;20449;-82
2022/06/06 05:38:54;;;;;;;3.90;3.60;;;18.40;99.30;;;;;;6140017;23;20408;-80
2022/06/06 05:41:38;;;;;;;5.00;4.40;;;18.70;98.80;;;;;;6144250;23;20422;-83
2022/06/06 05:44:25;;;;;;;4.67;4.20;;;18.60;99.20;;;;;;6135676;23;20439;-85
2022/06/06 05:47:22;;;;;;;4.27;3.87;;;18.60;99.20;;;;;;6138493;23;20399;-83
2022/06/06 05:49:58;;;;;;;4.17;3.77;;;18.60;99.20;;;;;;6120169;23;20432;-85
2022/06/06 05:52:46;;;;;;;4.27;3.97;;;19.00;98.20;;;;;;6139535;23;20903;-85
2022/06/06 05:55:12;;;;;;;5.00;3.67;;;18.90;97.40;;;;;;6139625;23;20483;-86
2022/06/06 05:58:04;;;;;;;4.50;3.57;;;18.80;97.30;;;;;;6134425;23;20414;-83
2022/06/06 06:00:40;;;;;;;5.10;3.70;;;18.70;97.80;;;;;;6131045;23;20446;-85
2022/06/06 06:03:06;;;;;;;3.43;3.13;;;18.80;97.10;;;;;;6131707;23;20534;-85
2022/06/06 06:05:47;;;;;;;3.30;3.00;;;18.70;96.50;;;;;;6132701;23;20411;-84
2022/06/06 06:08:22;;;;;;;3.30;2.90;;;18.80;96.70;;;;;;6133273;23;20620;-84
2022/06/06 06:11:08;;;;;;;2.67;2.47;;;18.80;96.20;;;;;;6109258;23;20427;-83
2022/06/06 06:14:09;;;;;;;4.27;3.07;;;18.80;96.20;;;;;;6145295;23;20491;-85
2022/06/06 06:16:44;;;;;;;3.00;2.70;;;18.80;96.20;;;;;;6098945;23;20400;-85
2022/06/06 06:19:22;;;;;;;4.00;2.40;;;18.80;95.40;;;;;;6118553;23;20437;-83
2022/06/06 06:21:54;;;;;;;2.73;2.53;;;18.60;95.30;;;;;;6110226;23;20411;-84
2022/06/06 06:24:31;;;;;;;2.40;2.20;;;18.50;95.50;;;;;;6136202;23;20459;-82
2022/06/06 06:26:58;;;;;;;3.53;2.53;;;18.50;95.40;;;;;;6108147;23;20395;-85
2022/06/06 06:29:25;;;;;;;2.03;1.93;;;18.60;94.70;;;;;;6133596;23;20451;-86
2022/06/06 06:32:13;;;;;;;2.60;2.17;;;18.60;94.20;;;;;;6133292;23;20407;-84
2022/06/06 06:35:01;;;;;;;1.60;1.50;;;19.10;93.80;;;;;;6131224;23;20416;-83
2022/06/06 06:37:54;;;;;;;4.13;1.83;;;19.40;91.80;;;;;;6130819;23;20799;-86
2022/06/06 06:40:48;;;;;;;2.40;2.07;;;19.30;91.90;;;;;;6133815;23;20538;-83
2022/06/06 06:43:25;;;;;;;2.50;2.30;;;19.50;91.60;;;;;;6137294;23;20392;-84
2022/06/06 06:45:57;;;;;;;2.03;1.80;;;19.30;91.20;;;;;;6136690;23;20388;-85
2022/06/06 06:48:31;;;;;;;1.70;1.60;;;19.60;91.40;;;;;;6137304;23;20404;-85
2022/06/06 06:51:30;;;;;;;2.73;2.30;;;19.60;89.70;;;;;;6110418;23;20427;-84
2022/06/06 06:54:06;;;;;;;2.00;1.80;;;19.60;89.50;;;;;;6109644;23;20524;-85
2022/06/06 06:57:00;;;;;;;1.87;1.67;;;19.60;89.00;;;;;;6131140;23;20417;-85
2022/06/06 06:59:46;;;;;;;2.03;1.83;;;19.70;89.00;;;;;;6132087;23;20444;-86
2022/06/06 07:08:50;;;;;;;1.53;1.43;;;20.00;87.00;;;;;;6132907;23;20420;-84
2022/06/06 07:11:29;;;;;;;1.70;1.60;;;20.20;85.70;;;;;;6132097;23;20411;-85
2022/06/06 07:14:12;;;;;;;2.47;1.87;;;20.10;83.00;;;;;;6131198;23;20438;-85
2022/06/06 07:16:40;;;;;;;2.40;2.20;;;19.70;84.60;;;;;;6106781;23;20402;-84
2022/06/06 07:19:12;;;;;;;2.10;1.63;;;19.60;85.00;;;;;;6132313;23;20440;-85
2022/06/06 07:21:41;;;;;;;2.23;1.70;;;19.60;85.50;;;;;;6107324;23;20395;-86
2022/06/06 07:24:10;;;;;;;1.50;1.40;;;19.60;85.10;;;;;;6134281;23;20416;-85
2022/06/06 07:26:41;;;;;;;1.63;1.50;;;19.60;83.80;;;;;;6108565;23;20416;-84
2022/06/06 07:29:12;;;;;;;1.40;1.30;;;19.60;83.80;;;;;;6109153;23;20435;-85
2022/06/06 07:31:54;;;;;;;2.40;1.63;;;19.60;83.90;;;;;;6135243;23;20434;-87
2022/06/06 07:34:39;;;;;;;2.47;1.57;;;19.60;84.60;;;;;;6132678;23;20434;-85
2022/06/06 07:37:37;;;;;;;1.50;1.40;;;19.60;85.10;;;;;;6134123;23;20411;-82
2022/06/06 07:40:50;;;;;;;1.20;1.10;;;19.70;85.60;;;;;;6108918;23;20428;-85
2022/06/06 07:43:31;;;;;;;1.77;1.43;;;19.90;84.40;;;;;;6134517;23;20417;-84
2022/06/06 07:46:38;;;;;;;1.37;1.27;;;19.90;83.10;;;;;;6133539;23;20411;-82
2022/06/06 07:49:46;;;;;;;2.67;2.47;;;19.90;83.30;;;;;;6115883;23;20447;-83
2022/06/06 07:52:15;;;;;;;1.50;1.40;;;19.90;83.80;;;;;;6135386;23;20447;-82
2022/06/06 07:54:48;;;;;;;1.47;1.37;;;19.90;83.00;;;;;;6132130;23;20503;-86
2022/06/06 07:57:42;;;;;;;1.20;1.10;;;20.00;82.70;;;;;;6130246;23;20412;-84
2022/06/06 08:00:18;;;;;;;1.30;1.20;;;20.30;82.70;;;;;;6133046;23;20527;-83
2022/06/06 08:03:16;;;;;;;1.40;1.30;;;20.50;82.00;;;;;;6132638;23;20416;-84
2022/06/06 08:06:11;;;;;;;1.30;1.20;;;20.70;79.80;;;;;;6132223;23;20717;-83
2022/06/06 08:09:29;;;;;;;1.20;1.10;;;20.80;79.30;;;;;;6129211;23;20428;-87
2022/06/06 08:11:58;;;;;;;1.97;1.00;;;21.00;78.30;;;;;;6071138;23;20419;-84
2022/06/06 08:14:49;;;;;;;1.30;1.20;;;21.50;77.10;;;;;;6131521;23;20443;-86
2022/06/06 08:17:30;;;;;;;2.03;1.53;;;22.30;73.70;;;;;;6131843;23;20484;-85
2022/06/06 08:20:21;;;;;;;1.40;1.30;;;22.50;70.60;;;;;;6106158;23;20435;-85
2022/06/06 08:22:50;;;;;;;2.77;1.30;;;22.10;71.60;;;;;;6131090;23;20473;-85
2022/06/06 08:25:17;;;;;;;1.00;0.90;;;22.70;70.40;;;;;;6131998;23;20794;-84
2022/06/06 08:27:50;;;;;;;1.23;1.13;;;22.50;70.00;;;;;;6132969;23;20404;-85
2022/06/06 08:30:19;;;;;;;1.10;1.00;;;22.90;67.40;;;;;;6132524;23;20435;-85
2022/06/06 08:32:46;;;;;;;1.17;1.10;;;22.90;67.00;;;;;;6133087;23;20466;-85
2022/06/06 08:35:14;;;;;;;1.23;0.90;;;23.80;63.40;;;;;;6133784;23;20526;-85
2022/06/06 08:38:02;;;;;;;2.30;2.10;;;23.70;62.10;;;;;;6133515;23;20408;-85
2022/06/06 08:41:04;;;;;;;0.80;0.80;;;23.10;63.50;;;;;;6134473;23;20461;-84
2022/06/06 08:43:49;;;;;;;1.40;1.30;;;22.40;65.10;;;;;;6088909;23;20460;-85
2022/06/06 08:46:40;;;;;;;1.20;1.10;;;22.20;67.10;;;;;;6115946;23;20404;-83
2022/06/06 08:52:27;;;;;;;1.30;1.20;;;22.30;68.20;;;;;;6103556;23;20412;-82
2022/06/06 08:55:22;;;;;;;3.80;1.63;;;23.40;65.80;;;;;;6077246;23;20451;-84
2022/06/06 08:58:22;;;;;;;1.43;1.33;;;23.80;63.00;;;;;;6079036;23;20399;-83
2022/06/06 09:01:20;;;;;;;1.60;1.00;;;23.80;63.70;;;;;;6103332;23;20428;-84
2022/06/06 09:04:37;;;;;;;1.23;0.87;;;23.80;62.60;;;;;;6102310;23;20404;-82
2022/06/06 09:07:40;;;;;;;6.00;4.17;;;24.00;59.70;;;;;;6100997;23;20416;-84
2022/06/06 09:10:28;;;;;;;3.70;1.60;;;23.90;59.40;;;;;;6076807;23;20444;-85
2022/06/06 09:13:18;;;;;;;1.33;0.90;;;23.30;59.40;;;;;;6076877;23;20432;-85
2022/06/06 09:16:09;;;;;;;2.10;1.10;;;24.90;58.50;;;;;;6077824;23;20404;-85
2022/06/06 09:19:06;;;;;;;2.60;2.40;;;25.60;56.00;;;;;;6104649;23;20397;-85
2022/06/06 09:22:11;;;;;;;1.20;0.90;;;25.90;55.20;;;;;;6108080;23;20397;-83
2022/06/06 09:25:11;;;;;;;0.83;0.70;;;25.60;55.00;;;;;;6082760;23;20422;-85
2022/06/06 09:28:06;;;;;;;1.20;0.90;;;26.40;53.70;;;;;;6104681;23;20444;-85
2022/06/06 09:30:55;;;;;;;0.80;0.70;;;26.60;52.90;;;;;;6077099;23;20501;-83
2022/06/06 09:33:54;;;;;;;2.13;1.33;;;25.30;54.80;;;;;;6102295;23;20405;-85
2022/06/06 09:36:38;;;;;;;1.00;0.70;;;24.80;56.10;;;;;;6075876;23;20880;-84
2022/06/06 09:39:08;;;;;;;1.53;1.00;;;24.70;56.30;;;;;;6076081;23;20515;-82
2022/06/06 09:42:04;;;;;;;2.17;1.57;;;24.30;60.70;;;;;;6075035;23;20912;-83
2022/06/06 09:45:09;;;;;;;1.60;1.10;;;23.50;67.40;;;;;;6076173;23;20425;-82
2022/06/06 09:47:50;;;;;;;6.70;2.00;;;22.40;76.00;;;;;;6100630;23;20511;-84
2022/06/06 09:50:48;;;;;;;2.33;1.13;;;21.60;84.90;;;;;;6103716;23;20473;-84
2022/06/06 09:53:27;;;;;;;1.33;1.20;;;21.00;90.70;;;;;;6076131;23;20405;-82
2022/06/06 09:59:01;;;;;;;2.50;1.50;;;20.70;93.40;;;;;;6082366;23;20416;-84
2022/06/06 10:02:06;;;;;;;3.17;1.10;;;21.40;94.30;;;;;;6103621;23;20420;-85
2022/06/06 10:04:51;;;;;;;1.40;1.10;;;22.50;93.70;;;;;;6078003;23;20740;-84
2022/06/06 10:07:27;;;;;;;1.50;1.10;;;23.40;90.00;;;;;;6103482;23;20419;-84
2022/06/06 10:10:27;;;;;;;2.60;1.20;;;23.20;88.30;;;;;;6102605;23;20412;-83
2022/06/06 10:13:22;;;;;;;1.30;1.00;;;23.10;89.00;;;;;;6078000;23;20475;-83
2022/06/06 10:16:03;;;;;;;2.57;1.20;;;22.80;89.30;;;;;;6077267;23;20496;-85
2022/06/06 10:18:37;;;;;;;1.23;1.13;;;22.60;88.30;;;;;;6102485;23;20404;-82
2022/06/06 10:21:25;;;;;;;1.97;1.37;;;22.40;90.50;;;;;;6104760;23;20958;-85
2022/06/06 10:24:22;;;;;;;1.47;1.37;;;22.30;91.20;;;;;;6081561;23;20421;-83
2022/06/06 10:27:28;;;;;;;2.50;1.67;;;22.10;90.40;;;;;;6080376;23;20412;-84
2022/06/06 10:30:11;;;;;;;1.40;1.23;;;22.00;89.90;;;;;;6079683;23;20515;-85
2022/06/06 10:33:13;;;;;;;1.33;1.23;;;21.80;90.30;;;;;;6085905;23;20716;-84
2022/06/06 10:35:49;;;;;;;1.60;1.50;;;21.60;90.30;;;;;;6112317;23;20462;-81
2022/06/06 10:38:31;;;;;;;1.83;1.60;;;21.50;91.10;;;;;;6108440;23;20483;-84
2022/06/06 10:41:08;;;;;;;1.83;1.73;;;21.30;91.40;;;;;;6105496;23;20444;-83
2022/06/06 10:43:41;;;;;;;2.03;1.87;;;21.20;92.60;;;;;;6078081;23;20484;-83
2022/06/06 10:46:24;;;;;;;1.40;1.23;;;21.30;92.30;;;;;;6105898;23;20393;-83
2022/06/06 10:49:00;;;;;;;1.40;1.30;;;21.40;92.10;;;;;;6105650;23;20767;-84
2022/06/06 10:51:49;;;;;;;1.43;1.20;;;21.30;92.30;;;;;;6083837;23;20397;-82
2022/06/06 10:54:54;;;;;;;2.07;1.67;;;21.90;90.40;;;;;;6089428;23;20446;-82
2022/06/06 10:57:33;;;;;;;1.67;1.50;;;21.70;91.10;;;;;;6087852;23;20477;-85
2022/06/06 11:00:22;;;;;;;3.53;1.20;;;21.40;91.20;;;;;;6112560;23;20432;-83
2022/06/06 11:02:58;;;;;;;1.70;1.60;;;21.00;92.30;;;;;;6113015;23;20424;-82
2022/06/06 11:05:51;;;;;;;1.43;1.00;;;20.70;91.20;;;;;;6088768;23;20459;-80
2022/06/06 11:08:47;;;;;;;1.33;1.23;;;20.90;91.10;;;;;;6089176;23;20416;-84
2022/06/06 11:11:55;;;;;;;2.30;1.17;;;21.00;91.90;;;;;;6115603;23;20484;-82
2022/06/06 11:14:26;;;;;;;1.50;1.40;;;21.00;92.30;;;;;;6115693;23;20492;-83
2022/06/06 11:17:11;;;;;;;1.50;1.00;;;21.40;91.40;;;;;;6114905;23;20432;-82
2022/06/06 11:19:56;;;;;;;1.07;0.80;;;21.30;90.60;;;;;;6114930;23;20439;-82
2022/06/06 11:22:46;;;;;;;1.40;1.30;;;21.50;89.70;;;;;;6089902;23;20443;-84
2022/06/06 11:25:13;;;;;;;3.57;1.17;;;21.80;89.40;;;;;;6116248;23;20480;-83
2022/06/06 11:27:45;;;;;;;1.10;1.00;;;21.70;89.80;;;;;;6091472;23;20412;-83
2022/06/06 11:30:19;;;;;;;1.00;1.00;;;21.90;86.60;;;;;;6116139;23;20464;-82
2022/06/06 11:33:10;;;;;;;2.20;1.00;;;22.00;87.20;;;;;;6112808;23;20415;-83
2022/06/06 11:36:15;;;;;;;1.33;0.83;;;22.60;88.30;;;;;;6089247;23;20440;-81
2022/06/06 11:38:46;;;;;;;1.30;1.20;;;23.20;84.90;;;;;;6115057;23;20450;-82
2022/06/06 11:41:22;;;;;;;0.80;0.70;;;25.00;78.00;;;;;;6095737;23;20413;-83
2022/06/06 11:43:49;;;;;;;1.40;0.80;;;24.70;73.90;;;;;;6098574;23;20392;-83
2022/06/06 11:46:44;;;;;;;1.23;1.10;;;24.10;74.40;;;;;;6122997;23;20468;-85
2022/06/06 11:49:50;;;;;;;1.20;0.77;;;24.00;75.80;;;;;;6122129;23;20428;-82
2022/06/06 11:52:50;;;;;;;0.73;0.73;;;25.80;69.20;;;;;;6064677;23;20400;-89
2022/06/06 11:55:45;;;;;;;2.40;1.50;;;25.50;64.90;;;;;;6122712;23;20435;-89
2022/06/06 11:58:58;;;;;;;0.80;0.80;;;25.70;63.80;;;;;;6097638;23;20412;-87
2022/06/06 12:02:15;;;;;;;1.13;1.07;;;25.10;63.00;;;;;;6088091;23;20408;-83
2022/06/06 12:05:09;;;;;;;1.27;1.17;;;24.70;62.40;;;;;;6087385;23;20424;-84
2022/06/06 12:07:42;;;;;;;2.30;1.27;;;25.20;62.70;;;;;;6112984;23;20405;-84
2022/06/06 12:10:14;;;;;;;1.90;0.90;;;25.20;60.40;;;;;;6113752;23;20437;-84
2022/06/06 12:16:30;;;;;;;1.27;1.17;;;27.10;54.90;;;;;;6131126;23;21019;-81
2022/06/06 12:19:48;;;;;;;1.10;1.00;;;26.70;53.50;;;;;;6117011;23;20864;-83
2022/06/06 12:22:30;;;;;;;1.53;0.80;;;25.40;54.60;;;;;;6082884;23;20404;-82
2022/06/06 12:25:35;;;;;;;1.10;1.07;;;25.20;54.10;;;;;;6118748;23;20454;-84
2022/06/06 12:28:40;;;;;;;1.33;0.93;;;25.10;52.50;;;;;;6025269;23;20435;-82
2022/06/06 12:31:35;;;;;;;0.80;0.60;;;25.10;52.70;;;;;;6118076;23;20416;-81
2022/06/06 12:34:07;;;;;;;2.83;0.93;;;25.60;52.00;;;;;;6117560;23;20431;-83
2022/06/06 12:37:07;;;;;;;2.77;0.93;;;25.90;49.80;;;;;;6141773;23;20455;-83
2022/06/06 12:39:54;;;;;;;0.80;0.80;;;25.70;50.50;;;;;;6089227;23;20447;-83
2022/06/06 12:42:43;;;;;;;3.10;0.80;;;26.10;50.40;;;;;;6139225;23;20393;-83
2022/06/06 12:45:38;;;;;;;3.23;1.30;;;25.70;50.90;;;;;;6131759;23;20440;-82
2022/06/06 12:48:13;;;;;;;4.23;1.10;;;25.40;51.90;;;;;;6132802;23;20409;-83
2022/06/06 12:50:56;;;;;;;2.43;0.80;;;25.20;52.10;;;;;;6135169;23;20424;-83
2022/06/06 12:53:49;;;;;;;2.40;1.13;;;25.70;51.80;;;;;;6136191;23;20463;-82
2022/06/06 12:56:38;;;;;;;0.73;0.70;;;25.70;51.60;;;;;;6128479;23;20444;-82
2022/06/06 12:59:36;;;;;;;1.53;1.00;;;26.20;51.30;;;;;;6129051;23;20465;-83
2022/06/06 13:02:24;;;;;;;1.53;0.90;;;25.70;52.40;;;;;;6130431;23;20404;-85
2022/06/06 13:05:15;;;;;;;1.90;1.20;;;25.40;53.20;;;;;;6131435;23;20404;-82
2022/06/06 13:08:12;;;;;;;1.70;1.20;;;25.00;53.70;;;;;;6103794;23;20402;-83
2022/06/06 13:10:46;;;;;;;2.00;1.30;;;25.00;54.40;;;;;;6134117;23;20733;-83
2022/06/06 13:13:31;;;;;;;1.20;1.10;;;24.90;56.10;;;;;;6137802;23;20423;-82
2022/06/06 13:16:34;;;;;;;5.80;1.33;;;24.90;57.20;;;;;;6137759;23;20528;-83
2022/06/06 13:19:40;;;;;;;1.20;1.10;;;24.80;57.50;;;;;;6104719;23;20490;-84
2022/06/06 13:22:21;;;;;;;2.43;1.23;;;24.90;57.20;;;;;;6131475;23;20400;-84
2022/06/06 13:25:14;;;;;;;3.90;1.43;;;24.90;56.60;;;;;;6129253;23;20402;-84
2022/06/06 13:27:59;;;;;;;3.73;1.20;;;24.80;55.60;;;;;;6112210;23;20472;-81
2022/06/06 13:30:46;;;;;;;1.57;1.00;;;24.50;56.20;;;;;;6133481;23;20440;-83
2022/06/06 13:33:46;;;;;;;1.37;1.27;;;24.40;56.40;;;;;;6130985;23;20396;-82
2022/06/06 13:36:38;;;;;;;2.47;1.37;;;24.40;56.90;;;;;;6131878;23;20459;-83
2022/06/06 13:39:19;;;;;;;1.93;1.10;;;24.60;56.30;;;;;;6130525;23;20487;-84
2022/06/06 13:42:08;;;;;;;3.17;1.50;;;24.60;56.00;;;;;;6132690;23;20418;-84
2022/06/06 13:44:49;;;;;;;1.37;1.27;;;24.50;55.40;;;;;;6132229;23;20412;-82
2022/06/06 13:47:54;;;;;;;1.20;1.10;;;24.80;55.60;;;;;;6133137;23;20807;-82
2022/06/06 13:50:33;;;;;;;2.13;1.13;;;24.70;55.70;;;;;;6056298;23;21375;-82
2022/06/06 13:53:11;;;;;;;2.73;1.43;;;24.70;55.60;;;;;;6131123;23;20396;-83
2022/06/06 13:55:39;;;;;;;1.57;1.47;;;24.80;55.40;;;;;;6131980;23;20447;-82
2022/06/06 13:58:38;;;;;;;1.50;1.20;;;24.60;55.60;;;;;;6106233;23;20415;-83
2022/06/06 14:01:36;;;;;;;1.10;1.00;;;24.50;54.30;;;;;;6132949;23;20427;-83
2022/06/06 14:04:36;;;;;;;3.10;1.50;;;24.50;53.80;;;;;;6148385;23;20395;-83
2022/06/06 14:15:25;;;;;;;;;;;;;;;;;;;;;
2022/06/06 14:21:35;;;;;;;2.60;1.13;;;24.70;51.00;;;;;;6130475;22;20565;-83
2022/06/06 14:24:12;;;;;;;1.00;1.00;;;24.80;50.70;;;;;;6103526;23;20407;-84
2022/06/06 14:29:30;;;;;;;0.80;0.80;;;24.70;50.10;;;;;;6133656;23;20463;-83
2022/06/06 14:32:16;;;;;;;1.57;1.47;;;24.70;50.00;;;;;;6113081;23;20395;-82
2022/06/06 14:34:46;;;;;;;2.00;1.23;;;24.70;50.40;;;;;;6144708;23;20416;-82
2022/06/06 14:37:17;;;;;;;1.67;1.10;;;24.70;50.60;;;;;;6143858;23;20510;-81
2022/06/06 14:39:58;;;;;;;1.17;1.07;;;24.70;50.80;;;;;;6136807;23;20426;-83